Time;durP1;ratioP1;P1;durP2;ratioP2;P2;SDS_P1;SDS_P2;PMS_P1;PMS_P2;Temp;Humidity;BMP_temperature;BMP_pressure;BME280_temperature;BME280_humidity;BME280_pressure;Samples;Min_cycle;Max_cycle;Signal;HPM_P1;HPM_P2
2021/08/16 00:01:11;;;;;;;12.40;2.83;;;18.20;97.80;;;;;;4887185;29;20216;-79
2021/08/16 00:03:37;;;;;;;16.20;3.33;;;18.20;97.90;;;;;;4887096;29;20704;-83
2021/08/16 00:06:02;;;;;;;10.97;2.90;;;18.20;97.90;;;;;;4903115;29;20191;-83
2021/08/16 00:08:28;;;;;;;10.23;2.20;;;18.30;98.10;;;;;;4886808;29;20196;-82
2021/08/16 00:10:54;;;;;;;11.87;2.53;;;18.40;97.80;;;;;;4900024;29;20247;-79
2021/08/16 00:13:20;;;;;;;9.03;2.60;;;18.30;97.90;;;;;;4903808;29;20614;-80
2021/08/16 00:15:47;;;;;;;14.30;3.23;;;18.20;98.20;;;;;;4903403;29;20295;-80
2021/08/16 00:18:12;;;;;;;11.20;2.67;;;18.20;98.40;;;;;;4886968;29;20272;-80
2021/08/16 00:20:38;;;;;;;13.17;2.40;;;18.20;98.60;;;;;;4886477;29;20688;-79
2021/08/16 00:23:04;;;;;;;12.80;3.00;;;18.10;98.70;;;;;;4903776;29;20274;-79
2021/08/16 00:25:30;;;;;;;14.50;2.43;;;18.20;98.80;;;;;;4903666;29;20283;-79
2021/08/16 00:27:56;;;;;;;12.30;2.33;;;18.10;98.90;;;;;;4903088;29;20195;-79
2021/08/16 00:30:21;;;;;;;10.30;2.40;;;18.00;99.30;;;;;;4886632;29;20283;-79
2021/08/16 00:32:49;;;;;;;13.53;3.10;;;18.20;99.20;;;;;;4903724;29;20671;-79
2021/08/16 00:35:14;;;;;;;11.63;2.83;;;18.10;99.30;;;;;;4886316;29;20219;-80
2021/08/16 00:37:40;;;;;;;13.47;3.63;;;18.10;99.40;;;;;;4886736;29;20217;-81
2021/08/16 00:40:06;;;;;;;10.93;2.63;;;18.00;99.90;;;;;;4886696;29;20692;-83
2021/08/16 00:42:33;;;;;;;16.03;2.40;;;18.00;99.90;;;;;;4903627;29;20207;-82
2021/08/16 00:44:59;;;;;;;8.37;2.83;;;18.00;99.90;;;;;;4903115;29;20294;-82
2021/08/16 00:47:26;;;;;;;11.53;2.70;;;17.90;99.90;;;;;;4884567;29;20638;-83
2021/08/16 00:49:52;;;;;;;11.70;2.63;;;17.90;99.90;;;;;;4886014;29;20190;-79
2021/08/16 00:52:17;;;;;;;10.50;2.93;;;17.90;99.90;;;;;;4870162;29;20648;-80
2021/08/16 00:54:43;;;;;;;10.47;2.70;;;17.90;99.90;;;;;;4888403;29;20550;-79
2021/08/16 00:57:09;;;;;;;15.13;2.40;;;18.00;99.90;;;;;;4884469;29;20207;-80
2021/08/16 00:59:35;;;;;;;16.00;2.83;;;18.00;99.90;;;;;;4891847;29;20185;-80
2021/08/16 01:02:00;;;;;;;12.73;3.10;;;18.10;99.90;;;;;;4900250;29;20191;-79
2021/08/16 01:04:28;;;;;;;17.40;3.00;;;18.10;99.90;;;;;;4883169;29;20224;-79
2021/08/16 01:06:53;;;;;;;17.83;3.80;;;18.00;99.90;;;;;;4895535;29;20648;-79
2021/08/16 01:09:19;;;;;;;12.87;2.47;;;17.90;99.90;;;;;;4884376;29;20271;-80
2021/08/16 01:11:47;;;;;;;11.37;2.30;;;18.00;99.90;;;;;;4900134;29;20185;-81
2021/08/16 01:14:13;;;;;;;10.10;2.67;;;18.10;99.90;;;;;;4899506;29;20677;-80
2021/08/16 01:16:39;;;;;;;9.03;2.27;;;18.00;99.90;;;;;;4899399;29;20271;-82
2021/08/16 01:19:05;;;;;;;18.77;3.10;;;18.00;99.90;;;;;;4899179;29;20215;-83
2021/08/16 01:21:31;;;;;;;11.93;3.10;;;18.00;99.90;;;;;;4898389;29;20278;-81
2021/08/16 01:23:57;;;;;;;10.17;2.83;;;17.90;99.90;;;;;;4899210;29;20902;-80
2021/08/16 01:26:22;;;;;;;12.37;2.53;;;17.90;99.90;;;;;;4898840;29;20199;-80
2021/08/16 01:28:48;;;;;;;11.83;2.80;;;17.80;99.90;;;;;;4882797;29;20191;-80
2021/08/16 01:31:14;;;;;;;8.47;2.50;;;17.80;99.90;;;;;;4882652;29;20195;-80
2021/08/16 01:33:40;;;;;;;13.17;2.40;;;17.90;99.90;;;;;;4881939;29;20207;-80
2021/08/16 01:36:06;;;;;;;11.97;2.23;;;17.90;99.90;;;;;;4882474;29;20320;-80
2021/08/16 01:38:34;;;;;;;12.13;4.00;;;17.80;99.90;;;;;;4886060;29;20319;-80
2021/08/16 01:41:01;;;;;;;9.60;2.90;;;17.70;99.90;;;;;;4882418;29;20189;-81
2021/08/16 01:43:26;;;;;;;11.97;2.80;;;17.80;99.90;;;;;;4884392;29;20233;-80
2021/08/16 01:45:52;;;;;;;9.40;2.60;;;17.90;99.90;;;;;;4903729;29;20190;-81
2021/08/16 01:48:19;;;;;;;15.70;3.50;;;17.70;99.90;;;;;;4887842;29;20192;-82
2021/08/16 01:50:45;;;;;;;17.90;2.77;;;17.70;99.90;;;;;;4899405;29;20183;-81
2021/08/16 01:53:12;;;;;;;11.77;2.73;;;17.70;99.90;;;;;;4882252;29;20187;-80
2021/08/16 01:55:37;;;;;;;8.93;2.40;;;17.80;99.90;;;;;;4881783;29;20528;-79
2021/08/16 01:58:03;;;;;;;11.40;1.90;;;17.90;99.90;;;;;;4898922;29;20216;-79
2021/08/16 02:00:29;;;;;;;12.67;2.17;;;18.00;99.90;;;;;;4897955;29;20200;-79
2021/08/16 02:02:55;;;;;;;9.60;1.93;;;18.10;99.90;;;;;;4881983;29;20198;-79
2021/08/16 02:05:21;;;;;;;8.90;2.17;;;18.10;99.90;;;;;;4881911;29;20208;-80
2021/08/16 02:07:46;;;;;;;9.13;2.40;;;18.10;99.90;;;;;;4897168;29;20189;-79
2021/08/16 02:10:12;;;;;;;13.87;3.03;;;18.00;99.90;;;;;;4898665;29;20202;-80
2021/08/16 02:12:38;;;;;;;9.23;2.87;;;17.90;99.90;;;;;;4881011;29;20204;-83
2021/08/16 02:15:08;;;;;;;9.07;2.67;;;18.00;99.90;;;;;;4882059;29;20209;-79
2021/08/16 02:17:33;;;;;;;9.47;2.43;;;18.00;99.90;;;;;;4898264;29;20192;-80
2021/08/16 02:19:59;;;;;;;11.23;2.50;;;18.00;99.90;;;;;;4881784;29;20195;-81
2021/08/16 02:22:24;;;;;;;10.13;2.50;;;18.10;99.90;;;;;;4882012;29;20208;-81
2021/08/16 02:24:50;;;;;;;5.93;2.00;;;18.00;99.90;;;;;;4881630;29;20224;-78
2021/08/16 02:27:17;;;;;;;13.50;2.60;;;17.90;99.90;;;;;;4881580;29;20285;-79
2021/08/16 02:29:42;;;;;;;12.23;2.30;;;18.00;99.90;;;;;;4897672;29;20208;-79
2021/08/16 02:32:08;;;;;;;12.17;2.53;;;18.00;99.90;;;;;;4890290;29;20188;-80
2021/08/16 02:34:34;;;;;;;14.40;2.53;;;17.90;99.90;;;;;;4902411;29;20185;-79
2021/08/16 02:37:00;;;;;;;9.33;2.83;;;17.80;99.90;;;;;;4882053;29;20190;-80
2021/08/16 02:39:25;;;;;;;10.53;2.60;;;17.90;99.90;;;;;;4897961;29;20682;-79
2021/08/16 02:41:51;;;;;;;10.33;2.10;;;17.80;99.90;;;;;;4897944;29;20268;-79
2021/08/16 02:44:16;;;;;;;10.13;2.47;;;17.80;99.90;;;;;;4880601;29;20240;-80
2021/08/16 02:46:42;;;;;;;12.83;2.57;;;17.80;99.90;;;;;;4897770;29;20198;-79
2021/08/16 02:49:08;;;;;;;11.40;2.63;;;17.80;99.90;;;;;;4881047;29;20653;-79
2021/08/16 02:51:33;;;;;;;16.20;2.40;;;17.90;99.90;;;;;;4882144;29;20276;-83
2021/08/16 02:53:59;;;;;;;12.03;2.43;;;18.00;99.90;;;;;;4889013;29;20283;-80
2021/08/16 02:56:24;;;;;;;10.63;2.50;;;18.00;99.90;;;;;;4897920;29;20590;-79
2021/08/16 02:58:50;;;;;;;9.60;2.17;;;18.00;99.90;;;;;;4896753;29;20277;-79
2021/08/16 03:01:15;;;;;;;14.13;2.30;;;18.10;99.90;;;;;;4881177;29;20240;-80
2021/08/16 03:03:41;;;;;;;10.60;2.67;;;18.10;99.90;;;;;;4880319;29;20753;-79
2021/08/16 03:06:07;;;;;;;11.47;2.40;;;18.10;99.90;;;;;;4880324;29;20208;-80
2021/08/16 03:08:34;;;;;;;9.17;3.00;;;18.10;99.90;;;;;;4880623;29;20612;-80
2021/08/16 03:11:00;;;;;;;9.87;1.90;;;18.00;99.90;;;;;;4880646;29;20699;-81
2021/08/16 03:13:26;;;;;;;8.97;2.00;;;18.00;99.90;;;;;;4898227;29;20196;-82
2021/08/16 03:15:52;;;;;;;10.63;2.13;;;18.00;99.90;;;;;;4880602;29;20198;-82
2021/08/16 03:18:18;;;;;;;10.93;2.43;;;18.00;99.90;;;;;;4880768;29;20189;-82
2021/08/16 03:20:43;;;;;;;10.90;2.70;;;17.90;99.90;;;;;;4897489;29;20219;-82
2021/08/16 03:23:09;;;;;;;7.80;2.30;;;17.90;99.90;;;;;;4898664;29;20191;-81
2021/08/16 03:25:35;;;;;;;8.20;2.27;;;17.90;99.90;;;;;;4881413;29;20842;-82
2021/08/16 03:28:00;;;;;;;15.63;2.90;;;17.90;99.90;;;;;;4880412;29;20657;-81
2021/08/16 03:30:26;;;;;;;12.33;2.40;;;18.00;99.90;;;;;;4881517;29;20540;-82
2021/08/16 03:32:51;;;;;;;12.27;2.50;;;17.90;99.90;;;;;;4880858;29;20184;-82
2021/08/16 03:35:17;;;;;;;14.80;2.40;;;17.80;99.90;;;;;;4897631;29;20658;-82
2021/08/16 03:37:43;;;;;;;10.97;2.40;;;17.80;99.90;;;;;;4882626;29;20189;-82
2021/08/16 03:40:10;;;;;;;9.03;3.03;;;17.80;99.90;;;;;;4892450;29;20175;-82
2021/08/16 03:42:37;;;;;;;15.20;3.07;;;17.90;99.90;;;;;;4897450;29;20206;-79
2021/08/16 03:45:11;;;;;;;12.67;2.77;;;17.90;99.90;;;;;;4897180;29;20309;-83
2021/08/16 03:47:37;;;;;;;7.00;2.13;;;17.80;99.90;;;;;;4897349;29;20198;-80
2021/08/16 03:50:07;;;;;;;10.43;2.40;;;17.80;99.90;;;;;;4880198;29;20555;-81
2021/08/16 03:52:33;;;;;;;14.37;2.80;;;17.70;99.90;;;;;;4880797;29;20199;-82
2021/08/16 03:55:00;;;;;;;11.57;2.40;;;17.80;99.90;;;;;;4880251;29;20241;-82
2021/08/16 03:57:25;;;;;;;11.27;2.60;;;17.80;99.90;;;;;;4881044;29;20185;-80
2021/08/16 03:59:51;;;;;;;13.83;2.70;;;17.80;99.90;;;;;;4880673;29;20263;-79
2021/08/16 04:02:17;;;;;;;9.53;3.03;;;17.70;99.90;;;;;;4897818;29;20613;-83
2021/08/16 04:04:43;;;;;;;14.47;2.43;;;17.70;99.90;;;;;;4880646;29;20220;-81
2021/08/16 07:42:31;;;;;;;9.47;3.67;;;19.30;99.90;;;;;;4897758;29;20240;-95
2021/08/16 07:45:08;;;;;;;10.13;3.57;;;19.50;99.90;;;;;;4881367;29;20233;-92
2021/08/16 07:48:28;;;;;;;;;;;;;;;;;;;;;
2021/08/16 07:59:04;;;;;;;;;;;;;;;;;;;;;
2021/08/16 11:57:10;;;;;;;29.13;17.00;;;19.80;98.90;;;;;;4911750;29;20231;-91
2021/08/16 14:15:32;;;;;;;11.07;5.77;;;19.40;99.90;;;;;;2491798;23;20238;-90
2021/08/16 14:17:58;;;;;;;9.40;5.40;;;19.10;99.90;;;;;;4926677;29;20216;-82
2021/08/16 14:20:24;;;;;;;8.20;5.50;;;18.90;99.90;;;;;;4944014;29;20183;-81
2021/08/16 14:22:51;;;;;;;9.97;5.53;;;18.80;99.90;;;;;;4942328;29;20187;-81
2021/08/16 14:25:17;;;;;;;11.80;5.90;;;18.70;99.90;;;;;;4926658;29;20188;-79
2021/08/16 14:27:43;;;;;;;12.13;5.50;;;18.60;99.90;;;;;;4925292;29;20275;-79
2021/08/16 14:30:09;;;;;;;9.53;5.13;;;18.60;99.90;;;;;;4941838;29;20629;-78
2021/08/16 14:32:35;;;;;;;8.73;4.80;;;18.50;99.90;;;;;;4927420;29;20239;-78
2021/08/16 14:35:02;;;;;;;7.17;4.90;;;18.40;99.90;;;;;;4925253;29;20203;-82
2021/08/16 14:37:30;;;;;;;7.60;4.93;;;18.50;99.90;;;;;;4940991;29;20261;-80
2021/08/16 14:39:55;;;;;;;10.63;5.73;;;18.50;99.90;;;;;;4921450;29;20672;-79
2021/08/16 14:42:21;;;;;;;12.17;6.10;;;18.60;99.90;;;;;;4923197;29;20203;-79
2021/08/16 14:44:48;;;;;;;9.60;6.23;;;18.60;99.90;;;;;;4923930;29;20184;-79
2021/08/16 14:47:15;;;;;;;12.87;6.57;;;18.50;99.90;;;;;;4922055;29;20275;-83
2021/08/16 14:49:42;;;;;;;11.60;6.77;;;18.30;99.90;;;;;;4923622;29;20196;-85
2021/08/16 14:52:09;;;;;;;15.93;8.20;;;18.00;99.90;;;;;;4922741;29;20226;-80
2021/08/16 14:54:35;;;;;;;15.43;8.10;;;17.80;99.90;;;;;;4922303;29;20240;-79
2021/08/16 14:57:02;;;;;;;15.30;8.90;;;17.70;99.90;;;;;;4923059;29;20208;-79
2021/08/16 14:59:27;;;;;;;16.80;9.83;;;17.60;99.90;;;;;;4906265;29;20221;-79
2021/08/16 15:01:53;;;;;;;15.03;8.73;;;17.60;99.90;;;;;;4922892;29;20180;-81
2021/08/16 15:04:19;;;;;;;19.80;9.03;;;17.60;99.90;;;;;;4909381;29;20275;-79
2021/08/16 15:06:44;;;;;;;15.87;8.63;;;17.60;99.90;;;;;;4904866;29;20206;-81
2021/08/16 15:09:10;;;;;;;16.87;8.77;;;17.30;99.90;;;;;;4922046;29;20606;-79
2021/08/16 15:11:37;;;;;;;18.87;8.43;;;17.20;99.90;;;;;;4906353;29;20668;-79
2021/08/16 15:14:03;;;;;;;14.80;7.77;;;16.80;99.90;;;;;;4922157;29;20197;-79
2021/08/16 15:16:29;;;;;;;15.50;8.23;;;16.70;99.90;;;;;;4920959;29;20252;-79
2021/08/16 15:18:54;;;;;;;15.83;8.20;;;16.40;99.90;;;;;;4921507;29;20214;-78
2021/08/16 15:21:20;;;;;;;16.80;8.67;;;16.20;99.90;;;;;;4922735;29;20685;-81
2021/08/16 15:23:46;;;;;;;19.87;8.90;;;16.10;99.90;;;;;;4920352;29;20195;-79
2021/08/16 15:26:12;;;;;;;16.23;8.63;;;16.10;99.90;;;;;;4923352;29;20202;-79
2021/08/16 15:28:40;;;;;;;16.83;9.00;;;16.10;99.90;;;;;;4922768;29;20224;-79
2021/08/16 15:31:05;;;;;;;19.80;8.53;;;16.20;99.90;;;;;;4918400;29;20237;-80
2021/08/16 15:33:31;;;;;;;20.90;9.40;;;16.10;99.90;;;;;;4920944;29;20662;-79
2021/08/16 15:35:57;;;;;;;17.53;9.00;;;16.20;99.90;;;;;;4917019;29;20186;-79
2021/08/16 15:38:23;;;;;;;14.83;7.97;;;16.30;99.90;;;;;;4908010;29;20203;-80
2021/08/16 15:40:49;;;;;;;19.27;8.07;;;16.40;99.90;;;;;;4903481;29;20275;-81
2021/08/16 15:43:15;;;;;;;23.03;8.37;;;16.30;99.90;;;;;;4920277;29;20214;-82
2021/08/16 15:45:41;;;;;;;12.10;6.73;;;16.30;99.90;;;;;;4925894;29;20216;-80
2021/08/16 15:48:11;;;;;;;14.83;6.77;;;16.30;99.90;;;;;;4919594;29;20272;-82
2021/08/16 15:50:48;;;;;;;16.37;7.40;;;16.30;99.90;;;;;;4919084;29;20250;-82
2021/08/16 15:53:15;;;;;;;16.37;6.80;;;16.30;99.90;;;;;;4910166;29;20201;-84
2021/08/16 15:55:42;;;;;;;13.50;6.20;;;16.20;99.90;;;;;;4909350;29;20685;-81
2021/08/16 15:58:08;;;;;;;14.40;6.87;;;16.20;99.90;;;;;;4921766;29;20188;-84
2021/08/16 16:00:38;;;;;;;13.37;5.67;;;16.20;99.90;;;;;;4920519;29;20198;-80
2021/08/16 16:03:05;;;;;;;13.20;6.00;;;16.30;99.90;;;;;;4906022;29;20193;-79
2021/08/16 16:05:37;;;;;;;13.97;6.07;;;16.40;99.90;;;;;;4920239;29;20196;-79
2021/08/16 16:08:09;;;;;;;12.70;5.83;;;16.40;99.90;;;;;;4905674;29;20189;-80
2021/08/16 16:10:46;;;;;;;13.33;6.00;;;16.50;99.90;;;;;;4921168;29;20191;-80
2021/08/16 16:13:13;;;;;;;13.23;5.87;;;16.60;99.90;;;;;;4920468;29;20215;-79
2021/08/16 16:15:43;;;;;;;13.03;7.10;;;16.60;99.90;;;;;;4920881;29;20751;-80
2021/08/16 16:18:18;;;;;;;11.20;5.87;;;16.80;99.90;;;;;;4919565;29;20217;-79
2021/08/16 16:20:44;;;;;;;12.17;5.67;;;16.90;99.90;;;;;;4922331;29;20188;-79
2021/08/16 16:23:11;;;;;;;11.87;5.93;;;17.10;99.90;;;;;;4904248;29;20295;-79
2021/08/16 16:25:38;;;;;;;12.60;5.20;;;17.10;99.90;;;;;;4907167;29;20612;-79
2021/08/16 16:28:03;;;;;;;12.80;5.47;;;17.00;99.90;;;;;;4904530;29;20202;-83
2021/08/16 16:30:29;;;;;;;11.70;5.23;;;17.10;99.90;;;;;;4921183;29;20196;-82
2021/08/16 16:32:56;;;;;;;13.77;5.87;;;17.20;99.90;;;;;;4906005;29;20203;-82
2021/08/16 16:35:23;;;;;;;13.53;6.23;;;17.30;99.90;;;;;;4924645;29;20227;-82
2021/08/16 16:37:51;;;;;;;13.27;6.27;;;17.40;99.90;;;;;;4903649;29;20212;-83
2021/08/16 16:40:16;;;;;;;12.33;6.30;;;17.40;99.90;;;;;;4905100;29;20248;-82
2021/08/16 16:42:42;;;;;;;16.40;8.17;;;17.40;99.90;;;;;;4904574;29;20196;-82
2021/08/16 16:45:08;;;;;;;15.93;7.67;;;17.50;99.90;;;;;;4903121;29;20190;-83
2021/08/16 16:47:33;;;;;;;19.47;8.53;;;17.60;99.90;;;;;;4900963;29;20190;-80
2021/08/16 16:50:04;;;;;;;14.57;7.87;;;17.60;99.90;;;;;;4923153;29;20309;-80
2021/08/16 16:52:30;;;;;;;21.20;9.90;;;17.60;99.90;;;;;;4905842;29;20183;-80
2021/08/16 16:54:56;;;;;;;17.60;8.73;;;17.70;99.90;;;;;;4904970;29;20252;-80
2021/08/16 16:57:21;;;;;;;19.07;9.30;;;17.80;99.90;;;;;;4919566;29;20650;-80
2021/08/16 16:59:47;;;;;;;20.63;9.13;;;18.00;99.90;;;;;;4902429;29;20195;-81
2021/08/16 17:02:13;;;;;;;16.77;8.80;;;18.10;99.90;;;;;;4903159;29;20304;-85
2021/08/16 17:04:38;;;;;;;18.33;8.37;;;18.20;99.90;;;;;;4922006;29;20213;-83
2021/08/16 17:07:04;;;;;;;13.00;7.70;;;18.40;99.90;;;;;;4921594;29;20221;-85
2021/08/16 17:09:29;;;;;;;14.37;7.83;;;18.50;99.90;;;;;;4918988;29;20194;-84
2021/08/16 17:11:55;;;;;;;15.57;8.10;;;18.70;99.90;;;;;;4918184;29;20663;-81
2021/08/16 17:14:23;;;;;;;13.97;8.23;;;18.60;99.90;;;;;;4920103;29;20215;-80
2021/08/16 17:16:48;;;;;;;14.50;8.70;;;18.50;99.90;;;;;;4921440;29;20200;-80
2021/08/16 17:19:14;;;;;;;17.27;9.70;;;18.40;99.90;;;;;;4920015;29;20188;-80
2021/08/16 17:21:40;;;;;;;16.23;9.37;;;18.30;99.90;;;;;;4919535;29;20224;-82
2021/08/16 17:24:07;;;;;;;16.80;9.13;;;18.20;99.90;;;;;;4897547;29;20301;-80
2021/08/16 17:26:33;;;;;;;18.23;9.03;;;18.10;99.90;;;;;;4920246;29;20657;-81
2021/08/16 17:28:59;;;;;;;17.03;9.20;;;17.90;99.90;;;;;;4916539;29;20197;-81
2021/08/16 17:31:25;;;;;;;19.13;9.67;;;17.80;99.90;;;;;;4917992;29;20580;-80
2021/08/16 17:33:50;;;;;;;18.97;9.10;;;17.80;99.90;;;;;;4917732;29;20212;-82
2021/08/16 17:36:16;;;;;;;20.63;10.27;;;17.60;99.90;;;;;;4901040;29;20192;-82
2021/08/16 17:38:43;;;;;;;18.47;9.97;;;17.70;99.90;;;;;;4920717;29;20199;-80
2021/08/16 17:41:08;;;;;;;18.77;10.40;;;17.60;99.90;;;;;;4920016;29;20231;-82
2021/08/16 17:43:34;;;;;;;22.67;10.47;;;17.40;99.90;;;;;;4919802;29;20180;-79
2021/08/16 17:46:00;;;;;;;19.43;10.23;;;17.40;99.90;;;;;;4920122;29;20209;-82
2021/08/16 17:48:25;;;;;;;20.47;10.67;;;17.40;99.90;;;;;;4903874;29;20242;-82
2021/08/16 17:50:51;;;;;;;23.60;11.20;;;17.30;99.90;;;;;;4920060;29;20273;-80
2021/08/16 17:53:17;;;;;;;19.53;11.00;;;17.10;99.90;;;;;;4921757;29;20215;-79
2021/08/16 17:55:43;;;;;;;23.87;11.20;;;17.00;99.90;;;;;;4899033;29;20217;-81
2021/08/16 17:58:09;;;;;;;27.40;11.33;;;16.90;99.90;;;;;;4904579;29;20258;-82
2021/08/16 18:00:35;;;;;;;23.03;12.00;;;17.00;99.90;;;;;;4907202;29;20203;-80
2021/08/16 18:03:02;;;;;;;25.67;12.40;;;17.10;99.90;;;;;;4923690;29;20199;-78
2021/08/16 18:05:28;;;;;;;19.30;11.23;;;17.20;99.90;;;;;;4906222;29;21290;-79
2021/08/16 18:07:55;;;;;;;23.93;11.47;;;17.10;99.90;;;;;;4923190;29;20726;-81
2021/08/16 18:10:22;;;;;;;21.63;11.10;;;17.20;99.90;;;;;;4922661;29;20224;-80
2021/08/16 18:12:50;;;;;;;23.50;12.50;;;17.20;99.90;;;;;;4908720;29;20184;-83
2021/08/16 18:15:16;;;;;;;21.00;11.30;;;17.30;99.90;;;;;;4921188;29;20271;-79
2021/08/16 18:17:41;;;;;;;20.87;11.53;;;17.30;99.90;;;;;;4920386;29;20197;-80
2021/08/16 18:20:09;;;;;;;22.20;11.70;;;17.30;99.90;;;;;;4918957;29;20653;-81
2021/08/16 18:22:36;;;;;;;20.90;11.40;;;17.50;99.90;;;;;;4902672;29;20190;-78
2021/08/16 18:25:04;;;;;;;25.23;11.83;;;17.60;99.90;;;;;;4920989;29;20198;-78
2021/08/16 18:27:30;;;;;;;25.77;12.07;;;17.70;99.90;;;;;;4917971;29;20200;-80
2021/08/16 18:29:56;;;;;;;22.10;11.20;;;17.60;99.90;;;;;;4919764;29;20187;-81
2021/08/16 18:32:23;;;;;;;19.97;10.73;;;17.50;99.90;;;;;;4902877;29;20247;-79
2021/08/16 18:34:50;;;;;;;20.40;11.53;;;17.50;99.90;;;;;;4900134;29;20216;-80
2021/08/16 18:37:16;;;;;;;22.03;12.00;;;17.60;99.90;;;;;;4902585;29;20189;-79
2021/08/16 18:39:48;;;;;;;24.00;12.50;;;17.60;99.90;;;;;;4907319;29;20302;-83
2021/08/16 18:42:18;;;;;;;22.77;12.17;;;17.60;99.90;;;;;;4903560;29;20253;-81
2021/08/16 18:44:45;;;;;;;26.67;13.57;;;17.50;99.90;;;;;;4919957;29;20178;-77
2021/08/16 18:47:12;;;;;;;26.53;13.70;;;17.50;99.90;;;;;;4904184;29;20273;-80
2021/08/16 18:49:38;;;;;;;30.17;14.27;;;17.40;99.90;;;;;;4920356;29;20200;-79
2021/08/16 18:52:04;;;;;;;31.23;14.53;;;17.20;99.90;;;;;;4905407;29;20648;-79
2021/08/16 18:54:31;;;;;;;29.43;14.67;;;16.90;99.90;;;;;;4920134;29;20221;-79
2021/08/16 18:56:56;;;;;;;31.03;15.23;;;16.60;99.90;;;;;;4905369;29;20189;-80
2021/08/16 18:59:23;;;;;;;31.43;14.47;;;16.40;99.90;;;;;;4905043;29;20186;-78
2021/08/16 19:01:49;;;;;;;31.47;14.87;;;16.30;99.90;;;;;;4904953;29;20186;-78
2021/08/16 19:04:15;;;;;;;28.37;15.07;;;16.30;99.90;;;;;;4901073;29;20497;-78
2021/08/16 19:06:41;;;;;;;37.70;15.80;;;16.40;99.90;;;;;;4917033;29;20189;-79
2021/08/16 19:09:08;;;;;;;34.60;15.10;;;16.40;99.90;;;;;;4916579;29;20222;-80
2021/08/16 19:11:35;;;;;;;30.87;14.67;;;16.30;99.90;;;;;;4902545;29;20621;-81
2021/08/16 19:14:01;;;;;;;34.93;15.23;;;16.30;99.90;;;;;;4899820;29;20219;-79
2021/08/16 19:16:27;;;;;;;32.07;14.97;;;16.50;99.90;;;;;;4916779;29;20697;-81
2021/08/16 19:18:53;;;;;;;39.57;15.97;;;16.40;99.90;;;;;;4897728;29;20219;-82
2021/08/16 19:21:21;;;;;;;30.67;14.63;;;16.40;99.90;;;;;;4898432;29;20553;-78
2021/08/16 19:23:47;;;;;;;33.07;15.80;;;16.40;99.90;;;;;;4913733;29;20196;-78
2021/08/16 19:26:13;;;;;;;30.73;15.50;;;16.30;99.90;;;;;;4913623;29;20610;-78
2021/08/16 19:28:41;;;;;;;31.87;16.13;;;16.20;99.90;;;;;;4897584;29;20190;-79
2021/08/16 19:31:06;;;;;;;32.97;15.67;;;16.20;99.90;;;;;;4914331;29;20183;-78
2021/08/16 19:33:32;;;;;;;33.23;15.80;;;16.20;99.90;;;;;;4914858;29;20277;-78
2021/08/16 19:36:00;;;;;;;40.53;16.40;;;16.10;99.90;;;;;;4897416;29;20289;-78
2021/08/16 19:38:26;;;;;;;37.27;16.43;;;16.10;99.90;;;;;;4895395;29;20210;-79
2021/08/16 19:40:54;;;;;;;39.03;17.33;;;15.90;99.90;;;;;;4897261;29;20598;-78
2021/08/16 19:43:20;;;;;;;39.23;16.17;;;16.00;99.90;;;;;;4912971;29;20633;-78
2021/08/16 19:45:46;;;;;;;36.67;18.00;;;16.10;99.90;;;;;;4914908;29;20226;-81
2021/08/16 19:48:12;;;;;;;33.10;17.50;;;16.10;99.90;;;;;;4898655;29;20537;-82
2021/08/16 19:50:37;;;;;;;41.33;17.40;;;16.20;99.90;;;;;;4916190;29;20203;-82
2021/08/16 19:53:03;;;;;;;36.73;17.30;;;16.20;99.90;;;;;;4917567;29;20272;-83
2021/08/16 19:55:30;;;;;;;37.67;17.90;;;16.20;99.90;;;;;;4918553;29;20338;-79
2021/08/16 19:57:56;;;;;;;41.20;17.20;;;16.10;99.90;;;;;;4902175;29;20549;-80
2021/08/16 20:00:22;;;;;;;38.97;17.63;;;16.10;99.90;;;;;;4919947;29;20196;-78
2021/08/16 20:02:48;;;;;;;34.83;18.37;;;16.10;99.90;;;;;;4902822;29;21993;-80
2021/08/16 20:05:14;;;;;;;37.77;17.57;;;16.00;99.90;;;;;;4919528;29;20224;-79
2021/08/16 20:07:39;;;;;;;39.73;18.07;;;16.00;99.90;;;;;;4919686;29;20194;-78
2021/08/16 20:10:06;;;;;;;42.37;18.47;;;15.90;99.90;;;;;;4918465;29;20238;-79
2021/08/16 20:12:33;;;;;;;38.10;18.13;;;15.90;99.90;;;;;;4898596;29;20230;-77
2021/08/16 20:14:59;;;;;;;37.50;17.23;;;15.80;99.90;;;;;;4914990;29;20223;-78
2021/08/16 20:17:24;;;;;;;40.70;18.93;;;15.90;99.90;;;;;;4919812;29;20543;-81
2021/08/16 20:19:50;;;;;;;40.00;17.43;;;16.00;99.90;;;;;;4901254;29;20194;-81
2021/08/16 20:22:16;;;;;;;42.80;19.60;;;16.00;99.90;;;;;;4910582;29;20636;-81
2021/08/16 20:24:44;;;;;;;38.57;18.77;;;16.00;99.90;;;;;;4919178;29;20641;-77
2021/08/16 20:27:10;;;;;;;39.50;18.73;;;16.00;99.90;;;;;;4918871;29;20186;-78
2021/08/16 20:29:35;;;;;;;46.30;19.90;;;15.80;99.90;;;;;;4918647;29;20242;-79
2021/08/16 20:32:01;;;;;;;47.47;19.80;;;15.80;99.90;;;;;;4918447;29;20252;-78
2021/08/16 20:34:26;;;;;;;43.63;18.60;;;15.70;99.90;;;;;;4918669;29;20283;-78
2021/08/16 20:36:52;;;;;;;40.93;20.60;;;15.70;99.90;;;;;;4902309;29;20202;-78
2021/08/16 20:39:18;;;;;;;42.03;19.53;;;15.60;99.90;;;;;;4917465;29;20185;-78
2021/08/16 20:41:43;;;;;;;38.57;19.10;;;15.60;99.90;;;;;;4916672;29;20195;-78
2021/08/16 20:44:09;;;;;;;46.43;18.40;;;15.60;99.90;;;;;;4918271;29;20290;-78
2021/08/16 20:46:37;;;;;;;41.33;19.47;;;15.60;99.90;;;;;;4918166;29;20247;-79
2021/08/16 20:49:03;;;;;;;46.87;20.80;;;15.70;99.90;;;;;;4901053;29;20649;-79
2021/08/16 20:51:29;;;;;;;48.63;20.40;;;15.80;99.90;;;;;;4917578;29;20234;-82
2021/08/16 20:53:54;;;;;;;45.63;20.73;;;15.80;99.90;;;;;;4918973;29;20225;-81
2021/08/16 20:56:20;;;;;;;45.00;20.93;;;15.60;99.90;;;;;;4917983;29;20652;-78
2021/08/16 20:58:45;;;;;;;47.60;21.10;;;15.60;99.90;;;;;;4917926;29;20312;-78
2021/08/16 21:01:11;;;;;;;45.70;20.00;;;15.50;99.90;;;;;;4917484;29;20231;-78
2021/08/16 21:03:37;;;;;;;53.37;21.57;;;15.50;99.90;;;;;;4917350;29;20189;-79
2021/08/16 21:06:03;;;;;;;51.90;20.23;;;15.40;99.90;;;;;;4918077;29;20187;-78
2021/08/16 21:08:29;;;;;;;46.70;20.10;;;15.40;99.90;;;;;;4918208;29;20522;-79
2021/08/16 21:10:55;;;;;;;45.83;19.93;;;15.50;99.90;;;;;;4883050;29;20539;-79
2021/08/16 21:13:20;;;;;;;45.27;19.83;;;15.50;99.90;;;;;;4898217;29;20278;-78
2021/08/16 21:15:46;;;;;;;48.87;20.87;;;15.50;99.90;;;;;;4917822;29;20247;-80
2021/08/16 21:18:12;;;;;;;52.03;20.43;;;15.50;99.90;;;;;;4916736;29;20739;-79
2021/08/16 21:20:38;;;;;;;42.97;19.43;;;15.50;99.90;;;;;;4901172;29;20200;-78
2021/08/16 21:23:04;;;;;;;52.07;22.23;;;15.40;99.90;;;;;;4903244;29;20210;-82
2021/08/16 21:25:30;;;;;;;51.93;22.60;;;15.40;99.90;;;;;;4918157;29;20226;-80
2021/08/16 21:27:55;;;;;;;48.60;20.93;;;15.40;99.90;;;;;;4917340;29;20635;-79
2021/08/16 21:30:21;;;;;;;53.40;21.77;;;15.40;99.90;;;;;;4900908;29;20641;-77
2021/08/16 21:32:48;;;;;;;47.10;20.67;;;15.40;99.90;;;;;;4916503;29;20194;-78
2021/08/16 21:35:14;;;;;;;50.03;22.60;;;15.30;99.90;;;;;;4899747;29;20276;-78
2021/08/16 21:37:39;;;;;;;51.50;21.60;;;15.30;99.90;;;;;;4900436;29;20192;-80
2021/08/16 21:40:06;;;;;;;49.40;21.33;;;15.20;99.90;;;;;;4913478;29;20219;-78
2021/08/16 21:42:33;;;;;;;53.47;21.30;;;15.10;99.90;;;;;;4916441;29;20203;-79
2021/08/16 21:44:59;;;;;;;51.60;22.00;;;15.20;99.90;;;;;;4895898;29;20194;-80
2021/08/16 21:47:24;;;;;;;50.30;21.53;;;15.20;99.90;;;;;;4902441;29;20193;-79
2021/08/16 21:49:50;;;;;;;51.10;22.17;;;15.20;99.90;;;;;;4919392;29;20199;-79
2021/08/16 21:52:17;;;;;;;52.70;22.10;;;15.20;99.90;;;;;;4917829;29;20250;-78
2021/08/16 21:54:43;;;;;;;53.90;22.27;;;15.40;99.90;;;;;;4919075;29;20255;-78
2021/08/16 21:57:08;;;;;;;48.17;21.10;;;15.30;99.90;;;;;;4900478;29;20203;-80
2021/08/16 21:59:34;;;;;;;48.47;21.20;;;15.30;99.90;;;;;;4906187;29;20182;-82
2021/08/16 22:02:00;;;;;;;51.90;21.43;;;15.30;99.90;;;;;;4897395;29;20197;-81
2021/08/16 22:04:28;;;;;;;51.83;21.53;;;15.30;99.90;;;;;;4911733;29;20316;-81
2021/08/16 22:06:53;;;;;;;51.90;22.27;;;15.30;99.90;;;;;;4899657;29;20195;-82
2021/08/16 22:09:19;;;;;;;54.67;22.37;;;15.40;99.90;;;;;;4916410;29;20266;-82
2021/08/16 22:11:45;;;;;;;51.20;22.33;;;15.30;99.90;;;;;;4904571;29;20197;-81
2021/08/16 22:14:10;;;;;;;55.33;21.97;;;15.30;99.90;;;;;;4916703;29;20654;-82
2021/08/16 22:16:36;;;;;;;49.63;22.03;;;15.40;99.90;;;;;;4916979;29;20209;-83
2021/08/16 22:19:02;;;;;;;46.43;20.50;;;15.30;99.90;;;;;;4914677;29;20185;-82
2021/08/16 22:21:27;;;;;;;54.73;22.13;;;15.30;99.90;;;;;;4921475;29;20195;-82
2021/08/16 22:23:53;;;;;;;50.27;21.57;;;15.40;99.90;;;;;;4901988;29;20177;-82
2021/08/16 22:26:19;;;;;;;51.43;22.23;;;15.30;99.90;;;;;;4917732;29;20236;-82